Terminal Aerodrome Forecast
Issued by NWS

Current Version | Previous Version | Graphics & Text | Print | Product List | Glossary On
Versions: 1 2 3 4 5 6 7 8 9 10 11 12 13 14 15 16 17 18 19 20 21 22
409
FTUS41 KPBZ 290528
TAFHLG
TAF
KHLG 290528Z 2906/3006 09005KT P6SM OVC020
      TEMPO 2906/2909 OVC015
     FM290900 09006KT P6SM VCSH OVC015
     FM291400 10008KT 6SM -SHRA OVC020
     FM300100 09013KT 5SM -SHRA OVC015=

USA.gov is the U.S. government's official web portal to all federal, state and local government web resources and services.